createdAt,value
2019-04-14T00:00:42.679Z,98.0636
2019-04-14T00:01:45.521Z,98.0636
2019-04-14T00:02:49.137Z,98.1079
2019-04-14T00:03:52.293Z,98.0896
2019-04-14T00:04:56.991Z,98.1033
2019-04-14T00:06:00.541Z,98.0957
2019-04-14T00:07:04.044Z,98.0621
2019-04-14T00:08:08.849Z,98.0728
2019-04-14T00:09:12.302Z,98.0636
2019-04-14T00:10:16.091Z,98.0758
2019-04-14T00:11:21.160Z,98.0636
2019-04-14T00:12:25.329Z,98.1369
2019-04-14T00:13:28.525Z,98.2315
2019-04-14T00:14:31.476Z,98.1918
2019-04-14T00:15:39.614Z,98.2376
2019-04-14T00:16:44.520Z,98.2452
2019-04-14T00:17:47.893Z,98.2223
2019-04-14T00:18:51.348Z,98.1949
2019-04-14T00:19:56.584Z,98.2055
2019-04-14T00:20:59.881Z,98.2223
2019-04-14T00:22:05.182Z,98.2101
2019-04-14T00:23:09.098Z,98.1720
2019-04-14T00:24:12.309Z,98.2040
2019-04-14T00:25:17.320Z,98.2452
2019-04-14T00:26:20.500Z,98.2376
2019-04-14T00:27:23.625Z,98.2376
2019-04-14T00:28:27.123Z,98.2818
2019-04-14T00:29:30.611Z,98.2513
2019-04-14T00:30:33.786Z,98.2406
2019-04-14T00:31:37.323Z,98.2513
2019-04-14T00:32:40.288Z,98.2589
2019-04-14T00:33:43.320Z,98.3154
2019-04-14T00:34:46.497Z,98.3337
2019-04-14T00:35:49.563Z,98.3688
2019-04-14T00:36:52.366Z,98.3475
2019-04-14T00:37:55.825Z,98.3413
2019-04-14T00:39:00.930Z,98.3551
2019-04-14T00:40:04.328Z,98.3917
2019-04-14T00:41:07.296Z,98.3475
2019-04-14T00:42:10.308Z,98.3597
2019-04-14T00:43:13.500Z,98.3703
2019-04-14T00:44:16.772Z,98.3597
2019-04-14T00:45:32.243Z,98.4237
2019-04-14T00:46:30.873Z,98.4207
2019-04-14T00:47:49.834Z,98.4512
2019-04-14T00:48:47.305Z,98.4985
2019-04-14T00:49:49.277Z,98.4344
2019-04-14T00:50:53.904Z,98.4573
2019-04-14T00:51:59.184Z,98.4375
2019-04-14T00:53:03.505Z,98.4665
2019-04-14T00:54:06.622Z,98.4894
2019-04-14T00:55:09.719Z,98.4787
2019-04-14T00:56:13.286Z,98.5031
2019-04-14T00:57:17.999Z,98.4665
2019-04-14T00:58:23.678Z,98.5153
2019-04-14T00:59:26.829Z,98.5473
2019-04-14T01:00:31.933Z,98.5382
2019-04-14T01:01:37.177Z,98.5245
2019-04-14T01:02:40.729Z,98.5901
2019-04-14T01:03:44.075Z,98.5977
2019-04-14T01:04:49.020Z,98.5992
2019-04-14T01:05:52.628Z,98.5580
2019-04-14T01:06:55.510Z,98.6481
2019-04-14T01:07:58.785Z,98.6343
2019-04-14T01:09:02.325Z,98.5931
2019-04-14T01:10:04.330Z,98.6023
2019-04-14T01:11:08.026Z,98.6297
2019-04-14T01:12:12.802Z,98.5931
2019-04-14T01:13:16.287Z,98.6633
2019-04-14T01:14:19.320Z,98.6755
2019-04-14T01:15:23.060Z,98.6816
2019-04-14T01:16:27.050Z,98.6084
2019-04-14T01:17:31.282Z,98.5977
2019-04-14T01:18:34.291Z,98.6526
2019-04-14T01:19:37.300Z,98.6130
2019-04-14T01:20:40.640Z,98.5763
2019-04-14T01:21:43.603Z,98.6313
2019-04-14T01:22:46.597Z,98.6358
2019-04-14T01:23:50.142Z,98.6404
2019-04-14T01:24:53.380Z,98.6435
2019-04-14T01:25:56.318Z,98.6267
2019-04-14T01:26:59.552Z,98.6618
2019-04-14T01:28:02.490Z,98.6496
2019-04-14T01:29:06.064Z,98.6755
2019-04-14T01:30:11.180Z,98.6343
2019-04-14T01:31:14.307Z,98.6160
2019-04-14T01:32:17.620Z,98.6114
2019-04-14T01:33:20.544Z,98.6343
2019-04-14T01:34:24.041Z,98.6542
2019-04-14T01:35:29.181Z,98.6435
2019-04-14T01:36:32.269Z,98.6404
2019-04-14T01:37:35.704Z,98.6481
2019-04-14T01:38:39.061Z,98.6755
2019-04-14T01:39:43.529Z,98.6954
2019-04-14T01:40:46.781Z,98.7228
2019-04-14T01:41:50.311Z,98.6999
2019-04-14T01:42:54.835Z,98.6908
2019-04-14T01:43:58.374Z,98.8495
2019-04-14T01:45:01.940Z,98.8647
2019-04-14T01:46:14.837Z,98.8922
2019-04-14T01:47:13.772Z,98.8540
2019-04-14T01:48:17.097Z,98.8495
2019-04-14T01:49:20.372Z,98.8129
2019-04-14T01:50:23.519Z,98.8632
2019-04-14T01:51:27.000Z,98.8785
2019-04-14T01:52:30.566Z,98.8815
2019-04-14T01:53:33.615Z,98.8266
2019-04-14T01:54:36.901Z,98.7991
2019-04-14T01:55:40.285Z,98.7945
2019-04-14T01:56:43.265Z,98.7671
2019-04-14T01:57:46.286Z,98.8357
2019-04-14T01:58:49.305Z,98.8266
2019-04-14T01:59:52.945Z,98.7625
2019-04-14T02:00:56.018Z,98.7808
2019-04-14T02:01:59.288Z,98.7594
2019-04-14T02:03:04.051Z,98.7259
2019-04-14T02:04:07.356Z,98.7030
2019-04-14T02:05:10.320Z,98.6893
2019-04-14T02:06:13.603Z,98.7259
2019-04-14T02:07:16.599Z,98.7121
2019-04-14T02:08:18.325Z,98.6755
2019-04-14T02:09:20.832Z,98.6587
2019-04-14T02:10:24.347Z,98.6160
2019-04-14T02:11:29.095Z,98.6755
2019-04-14T02:12:32.429Z,98.7228
2019-04-14T02:13:35.499Z,98.7182
2019-04-14T02:14:38.909Z,98.6862
2019-04-14T02:15:42.298Z,98.6206
2019-04-14T02:16:50.872Z,98.5748
2019-04-14T02:17:54.636Z,98.5702
2019-04-14T02:18:58.530Z,98.5382
2019-04-14T02:20:03.216Z,98.5382
2019-04-14T02:21:06.988Z,98.6542
2019-04-14T02:22:11.579Z,98.7030
2019-04-14T02:23:14.673Z,98.5977
2019-04-14T02:24:17.850Z,98.5794
2019-04-14T02:25:21.330Z,98.5992
2019-04-14T02:26:26.153Z,98.6114
2019-04-14T02:27:30.087Z,98.6450
2019-04-14T02:28:33.327Z,98.6954
2019-04-14T02:29:38.291Z,98.6587
2019-04-14T02:30:55.982Z,98.5840
2019-04-14T02:32:23.695Z,98.5260
2019-04-14T02:33:33.722Z,98.4344
2019-04-14T02:34:49.365Z,98.4421
2019-04-14T02:35:50.620Z,98.4741
2019-04-14T02:37:04.478Z,98.3459
2019-04-14T02:38:03.579Z,98.4344
2019-04-14T02:39:06.418Z,98.3047
2019-04-14T02:40:24.860Z,98.0865
2019-04-14T02:41:33.682Z,97.9156
2019-04-14T02:43:39.150Z,97.8759
2019-04-14T02:44:45.781Z,98.0224
2019-04-14T02:45:59.330Z,98.1033
2019-04-14T02:47:13.983Z,98.1277
2019-04-14T02:48:28.519Z,98.1994
2019-04-14T02:49:19.155Z,98.1994
2019-04-14T02:50:23.232Z,98.1537
2019-04-14T02:51:33.536Z,98.1125
2019-04-14T02:52:45.152Z,98.0957
2019-04-14T02:54:03.133Z,98.0636
2019-04-14T02:55:01.515Z,98.0621
2019-04-14T02:56:15.831Z,98.0163
2019-04-14T02:57:20.457Z,98.0224
2019-04-14T02:58:26.652Z,97.8393
2019-04-14T02:59:26.879Z,97.7600
2019-04-14T03:01:01.881Z,97.8439
2019-04-14T03:02:19.566Z,97.7920
2019-04-14T03:02:48.798Z,97.6883
2019-04-14T03:03:57.003Z,97.5952
2019-04-14T03:05:09.632Z,97.2763
2019-04-14T03:06:17.780Z,97.4640
2019-04-14T03:09:42.231Z,96.7773
2019-04-14T03:12:02.927Z,97.1618
2019-04-14T03:13:15.598Z,96.9223
2019-04-14T03:14:21.424Z,97.0794
2019-04-14T03:15:29.495Z,96.8948
2019-04-14T03:16:44.376Z,96.9879
2019-04-14T03:18:52.705Z,97.1206
2019-04-14T03:20:05.543Z,97.1145
2019-04-14T03:21:15.483Z,96.9955
2019-04-14T03:22:25.984Z,97.1298
2019-04-14T03:23:23.839Z,97.1161
2019-04-14T03:24:31.841Z,96.9543
2019-04-14T03:25:29.589Z,96.9329
2019-04-14T03:26:49.243Z,96.8185
2019-04-14T03:27:54.766Z,96.9924
2019-04-14T03:28:56.645Z,97.2656
2019-04-14T03:30:39.200Z,96.5393
2019-04-14T03:31:43.295Z,96.6339
2019-04-14T03:34:11.209Z,96.6949
2019-04-14T03:34:59.135Z,96.5194
2019-04-14T03:36:17.230Z,96.4202
2019-04-14T03:39:17.565Z,96.5698
2019-04-14T03:40:28.458Z,96.2402
2019-04-14T03:41:31.213Z,96.4324
2019-04-14T03:42:45.828Z,96.7758
2019-04-14T03:43:41.755Z,96.7132
2019-04-14T03:47:13.491Z,96.7041
2019-04-14T03:48:50.316Z,96.4935
2019-04-14T03:51:44.785Z,96.7437
2019-04-14T03:53:53.282Z,96.6354
2019-04-14T03:55:01.471Z,96.7483
2019-04-14T03:55:55.545Z,96.5789
2019-04-14T03:56:59.990Z,96.3058
2019-04-14T03:58:03.684Z,96.3455
2019-04-14T03:59:08.375Z,96.5927
2019-04-14T04:00:11.748Z,96.8032
2019-04-14T04:01:15.105Z,96.7803
2019-04-14T04:02:18.329Z,96.7895
2019-04-14T04:03:21.809Z,96.6522
2019-04-14T04:04:25.464Z,96.8917
2019-04-14T04:05:30.213Z,96.8811
2019-04-14T04:06:33.479Z,96.9543
2019-04-14T04:07:36.507Z,96.9238
2019-04-14T04:08:39.879Z,97.0184
2019-04-14T04:09:43.235Z,97.0657
2019-04-14T04:10:46.519Z,97.1099
2019-04-14T04:11:49.832Z,97.2152
2019-04-14T04:12:53.456Z,97.2381
2019-04-14T04:13:56.409Z,97.3297
2019-04-14T04:14:59.672Z,97.4533
2019-04-14T04:16:02.928Z,97.4456
2019-04-14T04:17:06.303Z,97.5860
2019-04-14T04:18:11.237Z,97.5906
2019-04-14T04:19:17.054Z,97.8286
2019-04-14T04:20:21.736Z,97.8607
2019-04-14T04:21:24.827Z,97.8332
2019-04-14T04:22:28.318Z,97.7752
2019-04-14T04:23:31.438Z,97.7783
2019-04-14T04:24:35.149Z,97.8286
2019-04-14T04:25:38.283Z,98.0575
2019-04-14T04:26:41.285Z,97.9675
2019-04-14T04:27:46.107Z,97.8805
2019-04-14T04:28:49.668Z,98.0453
2019-04-14T04:29:52.692Z,98.1537
2019-04-14T04:30:55.862Z,98.0713
2019-04-14T04:31:59.293Z,98.2010
2019-04-14T04:33:02.385Z,98.1445
2019-04-14T04:34:06.191Z,98.1231
2019-04-14T04:35:10.740Z,98.1872
2019-04-14T04:36:14.273Z,98.1643
2019-04-14T04:37:17.912Z,98.1094
2019-04-14T04:38:22.316Z,98.2376
2019-04-14T04:39:25.746Z,98.3734
2019-04-14T04:40:31.103Z,98.5077
2019-04-14T04:41:34.861Z,98.6496
2019-04-14T04:42:39.407Z,98.6709
2019-04-14T04:43:43.016Z,98.7182
2019-04-14T04:44:46.412Z,98.7305
2019-04-14T04:45:49.558Z,98.7350
2019-04-14T04:46:52.741Z,98.7305
2019-04-14T04:47:56.301Z,98.8952
2019-04-14T04:49:08.280Z,98.9319
2019-04-14T04:50:06.621Z,98.8952
2019-04-14T04:51:09.374Z,98.8968
2019-04-14T04:52:13.934Z,98.9044
2019-04-14T04:53:18.137Z,98.9288
2019-04-14T04:54:21.374Z,98.8830
2019-04-14T04:55:24.312Z,98.9197
2019-04-14T04:56:27.562Z,98.8220
2019-04-14T04:57:30.660Z,98.8220
2019-04-14T04:58:33.341Z,98.8129
2019-04-14T04:59:36.771Z,98.8464
2019-04-14T05:00:40.287Z,98.8739
2019-04-14T05:01:43.289Z,98.8449
2019-04-14T05:02:46.408Z,98.8006
2019-04-14T05:03:49.350Z,98.8098
2019-04-14T05:04:52.675Z,98.8098
2019-04-14T05:05:55.913Z,98.8006
2019-04-14T05:06:59.458Z,98.7823
2019-04-14T05:08:02.393Z,98.8220
2019-04-14T05:09:05.648Z,98.8861
2019-04-14T05:10:08.983Z,98.8602
2019-04-14T05:11:12.979Z,98.9609
2019-04-14T05:12:17.396Z,98.8861
2019-04-14T05:13:20.884Z,98.9502
2019-04-14T05:14:24.285Z,98.9105
2019-04-14T05:15:27.340Z,98.8327
2019-04-14T05:16:31.013Z,98.7091
2019-04-14T05:17:34.385Z,98.6481
2019-04-14T05:18:37.887Z,98.5748
2019-04-14T05:19:42.043Z,98.6404
2019-04-14T05:20:46.498Z,98.6404
2019-04-14T05:21:49.524Z,98.6938
2019-04-14T05:22:53.020Z,98.7045
2019-04-14T05:23:58.069Z,98.7579
2019-04-14T05:25:01.490Z,98.8052
2019-04-14T05:26:04.993Z,98.8281
2019-04-14T05:27:09.945Z,98.9136
2019-04-14T05:28:13.438Z,98.8785
2019-04-14T05:29:16.964Z,98.7915
2019-04-14T05:30:20.304Z,98.7213
2019-04-14T05:31:26.248Z,98.7076
2019-04-14T05:32:32.559Z,98.8373
2019-04-14T05:33:36.010Z,98.6893
2019-04-14T05:34:39.334Z,98.8418
2019-04-14T05:35:42.399Z,98.8235
2019-04-14T05:36:47.863Z,98.7945
2019-04-14T05:37:51.303Z,98.8693
2019-04-14T05:38:54.288Z,98.8540
2019-04-14T05:39:57.297Z,98.9197
2019-04-14T05:41:00.341Z,98.9654
2019-04-14T05:42:10.670Z,99.0326
2019-04-14T05:43:11.430Z,99.0890
2019-04-14T05:44:14.281Z,99.0372
2019-04-14T05:45:17.688Z,99.1287
2019-04-14T05:46:20.692Z,99.0112
2019-04-14T05:47:24.050Z,99.0005
2019-04-14T05:48:27.349Z,99.0249
2019-04-14T05:49:38.177Z,98.9914
2019-04-14T05:50:38.316Z,99.0478
2019-04-14T05:51:41.577Z,99.0967
2019-04-14T05:52:43.306Z,99.0158
2019-04-14T05:53:46.278Z,99.0692
2019-04-14T05:54:50.045Z,99.0646
2019-04-14T05:55:54.632Z,99.0097
2019-04-14T05:56:58.013Z,98.9960
2019-04-14T05:58:01.467Z,98.9776
2019-04-14T05:59:04.419Z,98.9197
2019-04-14T06:00:08.183Z,98.9044
2019-04-14T06:01:11.405Z,98.9273
2019-04-14T06:02:15.880Z,98.9136
2019-04-14T06:03:21.358Z,98.7778
2019-04-14T06:04:30.927Z,98.7717
2019-04-14T06:05:36.168Z,98.6114
2019-04-14T06:06:39.401Z,98.5946
2019-04-14T06:07:43.037Z,98.5534
2019-04-14T06:08:46.886Z,98.4558
2019-04-14T06:09:50.325Z,98.3703
2019-04-14T06:10:53.270Z,98.3246
2019-04-14T06:11:56.812Z,98.3093
2019-04-14T06:13:00.276Z,98.0758
2019-04-14T06:14:03.294Z,98.2559
2019-04-14T06:15:06.335Z,98.2971
2019-04-14T06:16:09.289Z,98.2971
2019-04-14T06:17:12.314Z,98.2086
2019-04-14T06:18:15.314Z,98.3139
2019-04-14T06:19:18.315Z,98.0667
2019-04-14T06:20:21.306Z,98.0819
2019-04-14T06:21:24.336Z,98.0987
2019-04-14T06:22:27.299Z,98.1689
2019-04-14T06:23:30.299Z,98.0545
2019-04-14T06:24:33.281Z,97.9294
2019-04-14T06:25:36.523Z,97.7111
2019-04-14T06:26:41.285Z,97.7096
2019-04-14T06:27:44.300Z,97.2351
2019-04-14T06:28:47.311Z,97.3266
2019-04-14T06:29:50.279Z,97.5875
2019-04-14T06:30:53.310Z,97.3861
2019-04-14T06:31:56.331Z,97.1572
2019-04-14T06:32:59.310Z,97.1710
2019-04-14T06:34:02.273Z,97.5051
2019-04-14T06:35:05.280Z,97.1145
2019-04-14T06:36:08.970Z,97.5326
2019-04-14T06:37:12.298Z,97.3251
2019-04-14T06:38:15.302Z,97.7279
2019-04-14T06:39:17.311Z,97.7661
2019-04-14T06:40:20.313Z,97.8073
2019-04-14T06:41:23.996Z,97.6776
2019-04-14T06:42:27.946Z,97.2656
2019-04-14T06:43:31.317Z,97.0657
2019-04-14T06:44:34.287Z,96.7544
2019-04-14T06:45:37.277Z,96.3012
2019-04-14T06:46:40.316Z,96.8032
2019-04-14T06:47:43.987Z,96.9329
2019-04-14T06:49:06.646Z,96.8078
2019-04-14T06:50:09.292Z,96.8994
2019-04-14T06:51:12.288Z,97.0520
2019-04-14T06:52:15.287Z,96.9314
2019-04-14T06:53:18.308Z,97.0840
2019-04-14T06:54:20.297Z,97.1847
2019-04-14T06:55:23.307Z,96.7895
2019-04-14T06:56:26.338Z,97.1511
2019-04-14T06:57:28.308Z,96.4004
2019-04-14T06:58:31.296Z,97.0199
2019-04-14T06:59:33.290Z,96.9604
2019-04-14T07:00:37.179Z,96.7544
2019-04-14T07:01:40.378Z,96.1547
2019-04-14T07:02:45.482Z,96.2081
2019-04-14T07:03:52.031Z,96.5164
2019-04-14T07:04:55.312Z,96.6155
2019-04-14T07:06:00.225Z,97.0596
2019-04-14T07:07:03.912Z,95.8572
2019-04-14T07:08:07.320Z,96.1089
2019-04-14T07:09:12.284Z,96.3455
2019-04-14T07:10:15.308Z,95.6603
2019-04-14T07:11:18.287Z,96.3088
2019-04-14T07:12:20.289Z,96.5621
2019-04-14T07:13:23.927Z,96.7208
2019-04-14T07:14:31.963Z,96.9314
2019-04-14T07:15:36.024Z,95.9792
2019-04-14T07:16:39.731Z,96.1685
2019-04-14T07:17:42.911Z,96.5621
2019-04-14T07:18:46.896Z,96.7712
2019-04-14T07:20:01.375Z,96.8185
2019-04-14T07:20:58.297Z,96.4004
2019-04-14T07:22:01.333Z,96.1486
2019-04-14T07:23:02.810Z,94.8898
2019-04-14T07:24:06.359Z,94.7814
2019-04-14T07:25:12.343Z,95.0607
2019-04-14T07:26:17.302Z,95.3307
2019-04-14T07:27:20.300Z,95.6130
2019-04-14T07:28:23.281Z,95.4635
2019-04-14T07:29:26.349Z,96.0723
2019-04-14T07:30:29.318Z,95.7916
2019-04-14T07:31:32.301Z,96.2509
2019-04-14T07:32:35.298Z,96.2905
2019-04-14T07:33:38.295Z,96.7254
2019-04-14T07:34:41.317Z,96.6659
2019-04-14T07:35:44.289Z,96.4935
2019-04-14T07:36:47.273Z,96.7987
2019-04-14T07:37:50.302Z,97.0230
2019-04-14T07:38:54.045Z,97.0565
2019-04-14T07:39:57.957Z,96.9741
2019-04-14T07:41:01.292Z,96.5057
2019-04-14T07:42:04.299Z,96.6766
2019-04-14T07:43:07.281Z,97.0474
2019-04-14T07:44:10.284Z,96.7071
2019-04-14T07:45:14.049Z,96.8368
2019-04-14T07:46:17.904Z,96.3928
2019-04-14T07:47:21.272Z,96.7666
2019-04-14T07:48:24.295Z,96.6384
2019-04-14T07:49:27.285Z,96.7529
2019-04-14T07:50:30.291Z,96.7712
2019-04-14T07:51:33.322Z,96.9238
2019-04-14T07:52:36.286Z,97.2351
2019-04-14T07:53:39.322Z,97.0291
2019-04-14T07:54:42.300Z,97.1023
2019-04-14T07:55:45.275Z,97.3068
2019-04-14T07:56:48.294Z,97.3526
2019-04-14T07:57:52.430Z,97.3617
2019-04-14T07:58:55.905Z,97.6287
2019-04-14T07:59:59.267Z,97.5998
2019-04-14T08:01:02.297Z,97.4228
2019-04-14T08:02:05.279Z,97.2244
2019-04-14T08:03:08.316Z,97.3495
2019-04-14T08:04:11.274Z,97.3358
2019-04-14T08:05:14.323Z,97.2854
2019-04-14T08:06:17.291Z,97.6226
2019-04-14T08:07:20.305Z,97.7569
2019-04-14T08:08:22.295Z,97.7020
2019-04-14T08:09:25.306Z,97.6776
2019-04-14T08:10:28.235Z,97.9492
2019-04-14T08:11:31.864Z,97.8698
2019-04-14T08:12:35.422Z,97.8531
2019-04-14T08:13:38.289Z,97.8149
2019-04-14T08:14:41.301Z,97.7600
2019-04-14T08:15:45.026Z,97.6791
2019-04-14T08:16:48.952Z,97.6913
2019-04-14T08:17:52.268Z,97.8149
2019-04-14T08:18:57.326Z,97.9858
2019-04-14T08:20:01.325Z,97.9797
2019-04-14T08:21:04.282Z,98.1689
2019-04-14T08:22:07.302Z,98.1781
2019-04-14T08:23:10.346Z,98.2040
2019-04-14T08:24:13.298Z,98.1414
2019-04-14T08:25:16.293Z,98.1033
2019-04-14T08:26:19.281Z,97.9858
2019-04-14T08:27:22.333Z,97.8424
2019-04-14T08:28:25.496Z,98.0545
2019-04-14T08:29:29.029Z,98.0270
2019-04-14T08:30:32.204Z,97.9446
2019-04-14T08:31:35.960Z,97.9171
2019-04-14T08:32:39.994Z,98.0545
2019-04-14T08:33:43.313Z,97.9614
2019-04-14T08:34:46.313Z,98.0438
2019-04-14T08:35:49.333Z,98.0209
2019-04-14T08:36:52.297Z,97.8485
2019-04-14T08:37:55.965Z,97.9568
2019-04-14T08:38:59.304Z,97.8653
2019-04-14T08:40:02.305Z,97.9843
2019-04-14T08:41:06.100Z,98.0484
2019-04-14T08:42:09.295Z,98.2910
2019-04-14T08:43:12.322Z,98.1903
2019-04-14T08:44:15.306Z,97.8256
2019-04-14T08:45:18.294Z,97.8759
2019-04-14T08:46:21.294Z,97.9248
2019-04-14T08:47:24.900Z,97.9019
2019-04-14T08:48:28.272Z,97.9721
2019-04-14T08:49:31.292Z,97.9522
2019-04-14T08:50:39.526Z,97.9721
2019-04-14T08:51:42.330Z,97.9904
2019-04-14T08:52:45.959Z,97.9294
2019-04-14T08:53:49.298Z,98.0591
2019-04-14T08:54:53.085Z,98.2269
2019-04-14T08:55:56.327Z,98.2559
2019-04-14T08:56:59.305Z,98.1216
2019-04-14T08:58:04.213Z,97.9538
2019-04-14T08:59:07.354Z,98.0896
2019-04-14T09:00:10.366Z,98.0636
2019-04-14T09:01:13.877Z,98.0362
2019-04-14T09:02:16.948Z,98.1125
2019-04-14T09:03:20.268Z,97.9950
2019-04-14T09:04:23.271Z,98.1033
2019-04-14T09:05:26.135Z,98.1857
2019-04-14T09:06:29.888Z,98.3047
2019-04-14T09:07:33.312Z,98.1857
2019-04-14T09:08:36.342Z,98.3017
2019-04-14T09:09:39.300Z,98.2315
2019-04-14T09:10:42.292Z,98.1262
2019-04-14T09:11:45.295Z,98.2361
2019-04-14T09:12:48.281Z,98.2834
2019-04-14T09:13:51.279Z,98.2834
2019-04-14T09:14:57.284Z,98.2589
2019-04-14T09:16:00.296Z,98.3108
2019-04-14T09:17:03.290Z,98.3780
2019-04-14T09:18:06.314Z,98.2284
2019-04-14T09:19:09.967Z,98.2818
2019-04-14T09:20:13.308Z,97.9980
2019-04-14T09:21:16.297Z,98.1903
2019-04-14T09:22:19.295Z,98.3154
2019-04-14T09:23:22.316Z,98.0865
2019-04-14T09:24:25.301Z,98.1781
2019-04-14T09:25:28.294Z,98.1720
2019-04-14T09:26:31.311Z,97.8744
2019-04-14T09:27:34.334Z,98.1079
2019-04-14T09:28:37.325Z,98.0575
2019-04-14T09:29:40.303Z,98.0117
2019-04-14T09:30:43.300Z,98.2010
2019-04-14T09:31:46.342Z,98.0255
2019-04-14T09:32:49.292Z,97.9980
2019-04-14T09:33:52.341Z,98.1323
2019-04-14T09:34:55.952Z,98.1506
2019-04-14T09:35:59.300Z,98.2467
2019-04-14T09:37:02.298Z,97.9492
2019-04-14T09:38:05.310Z,97.9248
2019-04-14T09:39:09.465Z,97.8103
2019-04-14T09:40:12.937Z,98.0163
2019-04-14T09:41:16.309Z,97.7600
2019-04-14T09:42:19.283Z,97.7523
2019-04-14T09:43:22.947Z,97.9400
2019-04-14T09:44:26.677Z,97.8988
2019-04-14T09:45:29.358Z,98.0804
2019-04-14T09:46:32.977Z,98.1872
2019-04-14T09:47:36.303Z,98.1643
2019-04-14T09:48:39.297Z,98.3383
2019-04-14T09:49:43.058Z,97.8714
2019-04-14T09:50:46.297Z,97.6699
2019-04-14T09:51:49.408Z,97.8805
2019-04-14T09:52:53.159Z,97.8576
2019-04-14T09:53:57.281Z,97.7737
2019-04-14T09:55:00.298Z,97.9568
2019-04-14T09:56:04.293Z,97.9858
2019-04-14T09:57:07.957Z,98.1903
2019-04-14T09:58:11.297Z,98.1308
2019-04-14T09:59:14.850Z,98.0362
2019-04-14T10:00:18.326Z,98.0026
2019-04-14T10:01:21.282Z,97.7600
2019-04-14T10:02:24.291Z,98.0804
2019-04-14T10:03:27.326Z,97.9019
2019-04-14T10:04:30.290Z,97.8759
2019-04-14T10:05:33.295Z,97.5830
2019-04-14T10:06:36.297Z,97.2244
2019-04-14T10:07:39.874Z,97.4044
2019-04-14T10:08:43.284Z,97.6226
2019-04-14T10:09:46.166Z,97.5326
2019-04-14T10:10:49.900Z,97.9202
2019-04-14T10:11:56.311Z,97.9706
2019-04-14T10:13:00.308Z,97.9019
2019-04-14T10:14:03.293Z,97.5921
2019-04-14T10:15:06.304Z,98.0133
2019-04-14T10:16:09.423Z,97.7569
2019-04-14T10:17:12.025Z,98.0255
2019-04-14T10:18:15.283Z,97.3526
2019-04-14T10:19:20.287Z,97.7234
2019-04-14T10:20:24.284Z,97.0916
2019-04-14T10:21:27.293Z,97.0291
2019-04-14T10:22:34.053Z,97.5418
2019-04-14T10:23:39.548Z,97.5677
2019-04-14T10:24:43.331Z,97.3037
2019-04-14T10:25:46.282Z,97.0336
2019-04-14T10:26:49.238Z,96.5209
2019-04-14T10:27:52.905Z,97.8561
2019-04-14T10:28:56.336Z,96.9375
2019-04-14T10:29:59.316Z,96.6537
2019-04-14T10:31:02.996Z,96.4828
2019-04-14T10:32:06.327Z,97.0047
2019-04-14T10:33:09.387Z,97.3953
2019-04-14T10:34:13.074Z,97.1283
2019-04-14T10:35:16.334Z,96.6567
2019-04-14T10:36:19.969Z,97.1023
2019-04-14T10:37:23.296Z,96.3912
2019-04-14T10:38:26.311Z,96.9284
2019-04-14T10:39:29.283Z,96.9924
2019-04-14T10:40:32.287Z,97.4121
2019-04-14T10:41:35.313Z,97.1283
2019-04-14T10:42:38.298Z,96.6751
2019-04-14T10:43:41.294Z,96.8582
2019-04-14T10:44:44.297Z,96.7758
2019-04-14T10:45:47.284Z,96.9238
2019-04-14T10:46:51.117Z,96.9680
2019-04-14T10:47:54.927Z,96.9268
2019-04-14T10:48:58.379Z,97.5860
2019-04-14T10:50:00.741Z,96.1364
2019-04-14T10:51:04.902Z,96.4385
2019-04-14T10:52:08.273Z,96.6339
2019-04-14T10:53:11.336Z,96.2921
2019-04-14T10:54:14.916Z,96.5988
2019-04-14T10:55:18.276Z,96.6155
2019-04-14T10:56:20.290Z,96.1776
2019-04-14T10:57:23.288Z,96.1074
2019-04-14T10:58:26.979Z,96.2829
2019-04-14T10:59:30.354Z,96.0937
2019-04-14T11:00:33.323Z,96.2722
2019-04-14T11:01:36.314Z,96.3088
2019-04-14T11:02:39.446Z,95.7229
2019-04-14T11:03:42.921Z,95.4589
2019-04-14T11:04:46.305Z,95.8297
2019-04-14T11:05:49.294Z,95.5550
2019-04-14T11:06:52.418Z,96.1212
2019-04-14T11:07:58.190Z,95.9854
2019-04-14T11:09:00.298Z,95.6970
2019-04-14T11:10:03.089Z,94.7494
2019-04-14T11:11:06.305Z,95.3170
2019-04-14T11:12:09.271Z,96.1212
2019-04-14T11:13:13.019Z,96.0266
2019-04-14T11:14:16.984Z,95.7610
2019-04-14T11:15:20.299Z,96.5148
2019-04-14T11:16:22.308Z,96.4385
2019-04-14T11:17:25.314Z,96.2081
2019-04-14T11:18:28.296Z,97.2625
2019-04-14T11:19:34.461Z,96.4736
2019-04-14T11:20:37.305Z,96.5743
2019-04-14T11:21:42.706Z,95.4574
2019-04-14T11:22:46.307Z,95.7961
2019-04-14T11:23:49.287Z,97.4258
2019-04-14T11:24:52.278Z,95.8846
2019-04-14T11:25:55.282Z,95.3429
2019-04-14T11:26:58.312Z,95.3109
2019-04-14T11:28:01.302Z,95.6771
2019-04-14T11:29:04.307Z,94.9691
2019-04-14T11:30:07.317Z,95.3475
2019-04-14T11:31:10.304Z,96.1913
2019-04-14T11:32:14.098Z,95.5825
2019-04-14T11:33:32.568Z,97.1008
2019-04-14T11:34:52.727Z,94.8623
2019-04-14T11:35:56.535Z,95.1476
2019-04-14T11:36:59.312Z,94.9004
2019-04-14T11:38:02.289Z,94.2809
2019-04-14T11:39:04.302Z,93.3288
2019-04-14T11:40:07.329Z,93.7362
2019-04-14T11:41:10.299Z,94.1268
2019-04-14T11:42:13.313Z,95.1614
2019-04-14T11:43:16.305Z,94.3313
2019-04-14T11:44:19.038Z,93.3669
2019-04-14T11:45:22.357Z,93.6217
2019-04-14T11:46:26.834Z,93.7820
2019-04-14T11:47:31.161Z,94.3923
2019-04-14T11:48:34.317Z,94.5327
2019-04-14T11:49:38.678Z,94.1451
2019-04-14T11:50:43.050Z,93.7194
2019-04-14T11:51:55.093Z,94.6853
2019-04-14T11:52:55.155Z,93.1243
2019-04-14T11:53:59.223Z,93.7514
2019-04-14T11:55:03.020Z,94.0307
2019-04-14T11:56:07.122Z,95.1827
2019-04-14T11:57:10.273Z,93.5943
2019-04-14T11:58:13.268Z,92.4315
2019-04-14T11:59:16.314Z,92.5689
2019-04-14T12:00:19.291Z,93.3883
2019-04-14T12:01:23.033Z,95.0607
2019-04-14T12:02:27.380Z,93.5042
2019-04-14T12:03:32.342Z,93.2845
2019-04-14T12:04:35.999Z,93.9712
2019-04-14T12:05:39.301Z,94.3099
2019-04-14T12:06:42.311Z,94.8714
2019-04-14T12:07:46.007Z,94.8821
2019-04-14T12:08:51.286Z,91.8914
2019-04-14T12:09:54.317Z,93.8659
2019-04-14T12:10:58.378Z,93.7774
2019-04-14T12:12:01.331Z,94.0444
2019-04-14T12:13:04.339Z,93.8094
2019-04-14T12:14:07.291Z,95.6374
2019-04-14T12:15:15.946Z,93.7148
2019-04-14T12:16:18.307Z,94.0612
2019-04-14T12:17:21.287Z,95.0591
2019-04-14T12:18:24.391Z,94.5464
2019-04-14T12:19:27.323Z,94.1222
2019-04-14T12:20:30.945Z,94.4686
2019-04-14T12:21:34.309Z,94.1894
2019-04-14T12:22:37.284Z,94.9813
2019-04-14T12:23:41.028Z,95.0011
2019-04-14T12:24:44.298Z,95.1751
2019-04-14T12:25:47.949Z,96.1074
2019-04-14T12:26:51.318Z,95.3201
2019-04-14T12:27:54.366Z,95.3292
2019-04-14T12:28:59.188Z,95.8755
2019-04-14T12:30:04.299Z,95.7565
2019-04-14T12:31:07.269Z,95.4269
2019-04-14T12:32:10.744Z,95.2148
2019-04-14T12:33:14.317Z,96.2829
2019-04-14T12:34:18.435Z,95.9289
2019-04-14T12:35:21.286Z,96.5896
2019-04-14T12:36:24.346Z,95.3857
2019-04-14T12:37:26.282Z,94.7173
2019-04-14T12:38:29.288Z,95.3979
2019-04-14T12:39:32.291Z,95.6680
2019-04-14T12:40:35.342Z,95.9518
2019-04-14T12:41:39.955Z,93.8781
2019-04-14T12:42:43.948Z,92.5658
2019-04-14T12:43:47.326Z,93.6370
2019-04-14T12:44:50.786Z,93.8598
2019-04-14T12:45:54.305Z,94.5922
2019-04-14T12:46:57.291Z,94.6609
2019-04-14T12:48:00.392Z,94.5846
2019-04-14T12:49:03.283Z,93.4707
2019-04-14T12:50:06.372Z,94.4976
2019-04-14T12:51:09.308Z,94.5052
2019-04-14T12:52:21.007Z,93.9757
2019-04-14T12:53:20.301Z,93.9696
2019-04-14T12:54:23.313Z,94.6380
2019-04-14T12:55:25.306Z,94.0719
2019-04-14T12:56:28.300Z,94.9722
2019-04-14T12:57:31.296Z,95.1095
2019-04-14T12:58:34.353Z,95.0927
2019-04-14T12:59:38.083Z,93.6950
2019-04-14T13:00:42.014Z,93.6049
2019-04-14T13:01:46.149Z,92.7214
2019-04-14T13:02:50.085Z,94.0581
2019-04-14T13:03:54.091Z,93.3806
2019-04-14T13:04:57.498Z,94.4884
2019-04-14T13:06:00.984Z,93.5622
2019-04-14T13:07:04.311Z,94.5296
2019-04-14T13:08:07.309Z,93.8293
2019-04-14T13:09:10.516Z,94.6563